sensor_id;sensor_type;location;lat;lon;timestamp;temperature;humidity
68912;SHT31;55953;51.650;-0.522;2023-03-20T00:02:20;8.54;72.48
68912;SHT31;55953;51.650;-0.522;2023-03-20T00:04:50;8.54;72.63
68912;SHT31;55953;51.650;-0.522;2023-03-20T00:07:18;8.54;72.77
68912;SHT31;55953;51.650;-0.522;2023-03-20T00:09:46;8.54;72.78
68912;SHT31;55953;51.650;-0.522;2023-03-20T00:12:17;8.54;72.77
68912;SHT31;55953;51.650;-0.522;2023-03-20T00:14:52;8.57;72.75
68912;SHT31;55953;51.650;-0.522;2023-03-20T00:17:20;8.56;72.74
68912;SHT31;55953;51.650;-0.522;2023-03-20T00:19:48;8.56;72.73
68912;SHT31;55953;51.650;-0.522;2023-03-20T00:22:16;8.54;72.99
68912;SHT31;55953;51.650;-0.522;2023-03-20T00:24:44;8.52;73.00
68912;SHT31;55953;51.650;-0.522;2023-03-20T00:27:12;8.52;73.02
68912;SHT31;55953;51.650;-0.522;2023-03-20T00:29:42;8.52;73.05
68912;SHT31;55953;51.650;-0.522;2023-03-20T00:32:11;8.54;72.97
68912;SHT31;55953;51.650;-0.522;2023-03-20T00:34:40;8.52;73.13
68912;SHT31;55953;51.650;-0.522;2023-03-20T00:37:08;8.51;73.09
68912;SHT31;55953;51.650;-0.522;2023-03-20T00:39:40;8.52;73.17
68912;SHT31;55953;51.650;-0.522;2023-03-20T00:42:11;8.52;73.24
68912;SHT31;55953;51.650;-0.522;2023-03-20T00:44:49;8.53;73.42
68912;SHT31;55953;51.650;-0.522;2023-03-20T00:47:23;8.53;73.33
68912;SHT31;55953;51.650;-0.522;2023-03-20T00:49:53;8.53;73.36
68912;SHT31;55953;51.650;-0.522;2023-03-20T00:52:22;8.55;73.37
68912;SHT31;55953;51.650;-0.522;2023-03-20T00:54:51;8.56;73.34
68912;SHT31;55953;51.650;-0.522;2023-03-20T00:57:26;8.53;73.42
68912;SHT31;55953;51.650;-0.522;2023-03-20T01:00:07;8.53;73.54
68912;SHT31;55953;51.650;-0.522;2023-03-20T01:02:49;8.53;73.47
68912;SHT31;55953;51.650;-0.522;2023-03-20T01:05:20;8.53;73.37
68912;SHT31;55953;51.650;-0.522;2023-03-20T01:07:49;8.52;73.44
68912;SHT31;55953;51.650;-0.522;2023-03-20T01:10:17;8.57;73.49
68912;SHT31;55953;51.650;-0.522;2023-03-20T01:12:45;8.63;73.43
68912;SHT31;55953;51.650;-0.522;2023-03-20T01:15:18;8.60;73.50
68912;SHT31;55953;51.650;-0.522;2023-03-20T01:17:56;8.55;73.70
68912;SHT31;55953;51.650;-0.522;2023-03-20T01:20:26;8.51;74.02
68912;SHT31;55953;51.650;-0.522;2023-03-20T01:22:56;8.51;74.02
68912;SHT31;55953;51.650;-0.522;2023-03-20T01:25:24;8.49;74.09
68912;SHT31;55953;51.650;-0.522;2023-03-20T01:27:53;8.48;74.23
68912;SHT31;55953;51.650;-0.522;2023-03-20T01:30:22;8.47;74.33
68912;SHT31;55953;51.650;-0.522;2023-03-20T01:32:53;8.44;74.53
68912;SHT31;55953;51.650;-0.522;2023-03-20T01:35:24;8.47;74.57
68912;SHT31;55953;51.650;-0.522;2023-03-20T01:37:55;8.47;74.45
68912;SHT31;55953;51.650;-0.522;2023-03-20T01:40:30;8.49;74.47
68912;SHT31;55953;51.650;-0.522;2023-03-20T01:43:09;8.48;74.59
68912;SHT31;55953;51.650;-0.522;2023-03-20T01:46:03;8.47;74.71
68912;SHT31;55953;51.650;-0.522;2023-03-20T01:51:26;8.50;74.67
68912;SHT31;55953;51.650;-0.522;2023-03-20T01:54:48;8.51;74.70
68912;SHT31;55953;51.650;-0.522;2023-03-20T01:57:13;8.50;74.80
68912;SHT31;55953;51.650;-0.522;2023-03-20T01:59:51;8.50;74.82
68912;SHT31;55953;51.650;-0.522;2023-03-20T02:02:29;8.50;74.93
68912;SHT31;55953;51.650;-0.522;2023-03-20T02:05:03;8.48;75.00
68912;SHT31;55953;51.650;-0.522;2023-03-20T02:07:38;8.48;75.00
68912;SHT31;55953;51.650;-0.522;2023-03-20T02:10:10;8.42;75.11
68912;SHT31;55953;51.650;-0.522;2023-03-20T02:13:05;8.38;75.27
68912;SHT31;55953;51.650;-0.522;2023-03-20T02:18:54;8.39;75.38
68912;SHT31;55953;51.650;-0.522;2023-03-20T02:45:10;8.42;75.76
68912;SHT31;55953;51.650;-0.522;2023-03-20T02:57:12;8.43;76.13
68912;SHT31;55953;51.650;-0.522;2023-03-20T02:59:57;8.42;76.26
68912;SHT31;55953;51.650;-0.522;2023-03-20T03:02:42;8.44;76.29
68912;SHT31;55953;51.650;-0.522;2023-03-20T03:05:20;8.44;76.40
68912;SHT31;55953;51.650;-0.522;2023-03-20T03:07:54;8.44;76.43
68912;SHT31;55953;51.650;-0.522;2023-03-20T03:11:13;8.44;76.52
68912;SHT31;55953;51.650;-0.522;2023-03-20T03:13:27;8.42;76.66
68912;SHT31;55953;51.650;-0.522;2023-03-20T03:16:02;8.43;76.72
68912;SHT31;55953;51.650;-0.522;2023-03-20T03:19:02;8.45;76.83
68912;SHT31;55953;51.650;-0.522;2023-03-20T03:21:35;8.45;76.93
68912;SHT31;55953;51.650;-0.522;2023-03-20T03:27:22;8.47;77.16
68912;SHT31;55953;51.650;-0.522;2023-03-20T03:29:56;8.48;77.15
68912;SHT31;55953;51.650;-0.522;2023-03-20T03:32:34;8.49;77.29
68912;SHT31;55953;51.650;-0.522;2023-03-20T03:35:09;8.51;77.31
68912;SHT31;55953;51.650;-0.522;2023-03-20T03:41:01;8.51;77.46
68912;SHT31;55953;51.650;-0.522;2023-03-20T03:43:42;8.55;77.48
68912;SHT31;55953;51.650;-0.522;2023-03-20T03:46:26;8.57;77.38
68912;SHT31;55953;51.650;-0.522;2023-03-20T03:49:30;8.57;77.59
68912;SHT31;55953;51.650;-0.522;2023-03-20T03:52:07;8.59;77.54
68912;SHT31;55953;51.650;-0.522;2023-03-20T03:54:47;8.59;77.55
68912;SHT31;55953;51.650;-0.522;2023-03-20T03:57:57;8.60;77.64
68912;SHT31;55953;51.650;-0.522;2023-03-20T04:00:31;8.62;77.58
68912;SHT31;55953;51.650;-0.522;2023-03-20T04:03:02;8.64;77.57
68912;SHT31;55953;51.650;-0.522;2023-03-20T04:05:34;8.66;77.52
68912;SHT31;55953;51.650;-0.522;2023-03-20T04:08:07;8.70;77.48
68912;SHT31;55953;51.650;-0.522;2023-03-20T04:10:35;8.71;77.41
68912;SHT31;55953;51.650;-0.522;2023-03-20T04:13:03;8.72;77.38
68912;SHT31;55953;51.650;-0.522;2023-03-20T04:15:31;8.74;77.35
68912;SHT31;55953;51.650;-0.522;2023-03-20T04:18:00;8.75;77.39
68912;SHT31;55953;51.650;-0.522;2023-03-20T04:20:29;8.75;77.43
68912;SHT31;55953;51.650;-0.522;2023-03-20T04:22:57;8.77;77.37
68912;SHT31;55953;51.650;-0.522;2023-03-20T04:25:25;8.76;77.34
68912;SHT31;55953;51.650;-0.522;2023-03-20T04:27:54;8.77;77.41
68912;SHT31;55953;51.650;-0.522;2023-03-20T04:30:40;8.75;77.51
68912;SHT31;55953;51.650;-0.522;2023-03-20T04:33:33;8.75;77.54
68912;SHT31;55953;51.650;-0.522;2023-03-20T04:36:20;8.75;77.61
68912;SHT31;55953;51.650;-0.522;2023-03-20T04:38:51;8.77;77.64
68912;SHT31;55953;51.650;-0.522;2023-03-20T04:41:21;8.78;77.64
68912;SHT31;55953;51.650;-0.522;2023-03-20T04:43:53;8.81;77.61
68912;SHT31;55953;51.650;-0.522;2023-03-20T04:46:22;8.82;77.69
68912;SHT31;55953;51.650;-0.522;2023-03-20T04:48:50;8.80;77.74
68912;SHT31;55953;51.650;-0.522;2023-03-20T04:51:18;8.81;77.81
68912;SHT31;55953;51.650;-0.522;2023-03-20T04:53:52;8.80;77.94
68912;SHT31;55953;51.650;-0.522;2023-03-20T04:56:20;8.80;77.95
68912;SHT31;55953;51.650;-0.522;2023-03-20T04:58:49;8.81;78.11
68912;SHT31;55953;51.650;-0.522;2023-03-20T05:01:19;8.83;78.22
68912;SHT31;55953;51.650;-0.522;2023-03-20T05:03:48;8.85;78.40
68912;SHT31;55953;51.650;-0.522;2023-03-20T05:06:16;8.86;78.46
68912;SHT31;55953;51.650;-0.522;2023-03-20T05:08:44;8.85;78.59
68912;SHT31;55953;51.650;-0.522;2023-03-20T05:11:12;8.87;78.71
68912;SHT31;55953;51.650;-0.522;2023-03-20T05:13:54;8.90;78.72
68912;SHT31;55953;51.650;-0.522;2023-03-20T05:16:41;8.91;78.99
68912;SHT31;55953;51.650;-0.522;2023-03-20T05:19:31;8.90;79.46
68912;SHT31;55953;51.650;-0.522;2023-03-20T05:22:05;8.90;79.49
68912;SHT31;55953;51.650;-0.522;2023-03-20T05:24:59;8.90;79.92
68912;SHT31;55953;51.650;-0.522;2023-03-20T05:27:48;8.91;80.04
68912;SHT31;55953;51.650;-0.522;2023-03-20T05:30:48;8.92;80.35
68912;SHT31;55953;51.650;-0.522;2023-03-20T05:33:34;8.94;80.47
68912;SHT31;55953;51.650;-0.522;2023-03-20T05:36:09;8.93;80.68
68912;SHT31;55953;51.650;-0.522;2023-03-20T05:38:51;8.91;81.03
68912;SHT31;55953;51.650;-0.522;2023-03-20T05:41:38;8.91;81.21
68912;SHT31;55953;51.650;-0.522;2023-03-20T05:44:24;8.96;81.18
68912;SHT31;55953;51.650;-0.522;2023-03-20T05:47:09;8.96;81.38
68912;SHT31;55953;51.650;-0.522;2023-03-20T05:50:01;8.97;81.36
68912;SHT31;55953;51.650;-0.522;2023-03-20T05:52:55;8.97;81.61
68912;SHT31;55953;51.650;-0.522;2023-03-20T05:55:33;8.97;81.70
68912;SHT31;55953;51.650;-0.522;2023-03-20T05:58:14;8.98;81.88
68912;SHT31;55953;51.650;-0.522;2023-03-20T06:00:45;8.96;81.90
68912;SHT31;55953;51.650;-0.522;2023-03-20T06:03:24;8.97;81.92
68912;SHT31;55953;51.650;-0.522;2023-03-20T06:06:00;8.98;82.46
68912;SHT31;55953;51.650;-0.522;2023-03-20T06:08:28;8.98;82.51
68912;SHT31;55953;51.650;-0.522;2023-03-20T06:10:58;9.01;82.46
68912;SHT31;55953;51.650;-0.522;2023-03-20T06:13:26;9.01;82.57
68912;SHT31;55953;51.650;-0.522;2023-03-20T06:15:53;9.03;82.40
68912;SHT31;55953;51.650;-0.522;2023-03-20T06:18:22;9.04;82.61
68912;SHT31;55953;51.650;-0.522;2023-03-20T06:20:53;9.06;82.57
68912;SHT31;55953;51.650;-0.522;2023-03-20T06:23:23;9.09;82.56
68912;SHT31;55953;51.650;-0.522;2023-03-20T06:25:51;9.10;82.75
68912;SHT31;55953;51.650;-0.522;2023-03-20T06:28:19;9.12;82.94
68912;SHT31;55953;51.650;-0.522;2023-03-20T06:30:50;9.14;82.88
68912;SHT31;55953;51.650;-0.522;2023-03-20T06:33:20;9.17;82.88
68912;SHT31;55953;51.650;-0.522;2023-03-20T06:35:57;9.19;82.94
68912;SHT31;55953;51.650;-0.522;2023-03-20T06:38:25;9.20;83.05
68912;SHT31;55953;51.650;-0.522;2023-03-20T06:40:53;9.22;83.10
68912;SHT31;55953;51.650;-0.522;2023-03-20T06:43:22;9.25;83.03
68912;SHT31;55953;51.650;-0.522;2023-03-20T06:45:51;9.28;83.21
68912;SHT31;55953;51.650;-0.522;2023-03-20T06:48:21;9.28;83.56
68912;SHT31;55953;51.650;-0.522;2023-03-20T06:50:50;9.32;83.40
68912;SHT31;55953;51.650;-0.522;2023-03-20T06:53:22;9.37;83.35
68912;SHT31;55953;51.650;-0.522;2023-03-20T06:56:08;9.42;83.48
68912;SHT31;55953;51.650;-0.522;2023-03-20T06:58:40;9.46;83.72
68912;SHT31;55953;51.650;-0.522;2023-03-20T07:01:11;9.49;83.96
68912;SHT31;55953;51.650;-0.522;2023-03-20T07:03:43;9.54;83.83
68912;SHT31;55953;51.650;-0.522;2023-03-20T07:06:12;9.59;83.95
68912;SHT31;55953;51.650;-0.522;2023-03-20T07:08:40;9.63;83.88
68912;SHT31;55953;51.650;-0.522;2023-03-20T07:11:08;9.67;83.79
68912;SHT31;55953;51.650;-0.522;2023-03-20T07:13:36;9.73;83.72
68912;SHT31;55953;51.650;-0.522;2023-03-20T07:16:15;9.77;83.66
68912;SHT31;55953;51.650;-0.522;2023-03-20T07:18:43;9.80;83.64
68912;SHT31;55953;51.650;-0.522;2023-03-20T07:21:14;9.85;83.63
68912;SHT31;55953;51.650;-0.522;2023-03-20T07:23:46;9.88;83.53
68912;SHT31;55953;51.650;-0.522;2023-03-20T07:26:14;9.90;83.54
68912;SHT31;55953;51.650;-0.522;2023-03-20T07:28:42;9.93;83.54
68912;SHT31;55953;51.650;-0.522;2023-03-20T07:31:21;9.99;83.45
68912;SHT31;55953;51.650;-0.522;2023-03-20T07:34:02;10.03;83.50
68912;SHT31;55953;51.650;-0.522;2023-03-20T07:36:33;10.06;83.55
68912;SHT31;55953;51.650;-0.522;2023-03-20T07:39:01;10.09;83.58
68912;SHT31;55953;51.650;-0.522;2023-03-20T07:41:29;10.16;83.53
68912;SHT31;55953;51.650;-0.522;2023-03-20T07:44:01;10.21;83.48
68912;SHT31;55953;51.650;-0.522;2023-03-20T07:46:55;10.30;83.37
68912;SHT31;55953;51.650;-0.522;2023-03-20T07:49:23;10.35;83.38
68912;SHT31;55953;51.650;-0.522;2023-03-20T07:51:52;10.41;83.39
68912;SHT31;55953;51.650;-0.522;2023-03-20T07:54:22;10.45;83.39
68912;SHT31;55953;51.650;-0.522;2023-03-20T07:56:50;10.50;83.49
68912;SHT31;55953;51.650;-0.522;2023-03-20T07:59:19;10.53;83.37
68912;SHT31;55953;51.650;-0.522;2023-03-20T08:01:47;10.54;83.49
68912;SHT31;55953;51.650;-0.522;2023-03-20T08:04:16;10.57;83.58
68912;SHT31;55953;51.650;-0.522;2023-03-20T08:06:46;10.64;83.45
68912;SHT31;55953;51.650;-0.522;2023-03-20T08:09:14;10.71;83.40
68912;SHT31;55953;51.650;-0.522;2023-03-20T08:11:44;10.78;83.26
68912;SHT31;55953;51.650;-0.522;2023-03-20T08:14:12;10.83;83.15
68912;SHT31;55953;51.650;-0.522;2023-03-20T08:16:40;10.89;83.08
68912;SHT31;55953;51.650;-0.522;2023-03-20T08:19:08;10.92;82.99
68912;SHT31;55953;51.650;-0.522;2023-03-20T08:21:36;10.93;83.03
68912;SHT31;55953;51.650;-0.522;2023-03-20T08:24:04;10.95;83.09
68912;SHT31;55953;51.650;-0.522;2023-03-20T08:26:32;10.98;83.08
68912;SHT31;55953;51.650;-0.522;2023-03-20T08:29:02;11.00;83.16
68912;SHT31;55953;51.650;-0.522;2023-03-20T08:31:30;11.06;83.13
68912;SHT31;55953;51.650;-0.522;2023-03-20T08:33:59;11.12;83.05
68912;SHT31;55953;51.650;-0.522;2023-03-20T08:36:27;11.14;82.94
68912;SHT31;55953;51.650;-0.522;2023-03-20T08:38:55;11.19;82.97
68912;SHT31;55953;51.650;-0.522;2023-03-20T08:41:23;11.25;82.82
68912;SHT31;55953;51.650;-0.522;2023-03-20T08:43:51;11.29;82.74
68912;SHT31;55953;51.650;-0.522;2023-03-20T08:46:19;11.34;82.76
68912;SHT31;55953;51.650;-0.522;2023-03-20T08:48:47;11.36;82.70
68912;SHT31;55953;51.650;-0.522;2023-03-20T08:51:15;11.38;82.78
68912;SHT31;55953;51.650;-0.522;2023-03-20T08:53:43;11.45;82.63
68912;SHT31;55953;51.650;-0.522;2023-03-20T08:56:11;11.53;82.54
68912;SHT31;55953;51.650;-0.522;2023-03-20T08:58:39;11.64;82.36
68912;SHT31;55953;51.650;-0.522;2023-03-20T09:01:07;11.77;82.07
68912;SHT31;55953;51.650;-0.522;2023-03-20T09:03:36;11.84;81.88
68912;SHT31;55953;51.650;-0.522;2023-03-20T09:06:05;11.93;81.82
68912;SHT31;55953;51.650;-0.522;2023-03-20T09:08:35;12.04;81.66
68912;SHT31;55953;51.650;-0.522;2023-03-20T09:11:03;12.11;81.37
68912;SHT31;55953;51.650;-0.522;2023-03-20T09:13:33;12.18;81.16
68912;SHT31;55953;51.650;-0.522;2023-03-20T09:16:01;12.23;81.05
68912;SHT31;55953;51.650;-0.522;2023-03-20T09:18:30;12.25;80.89
68912;SHT31;55953;51.650;-0.522;2023-03-20T09:20:58;12.22;80.88
68912;SHT31;55953;51.650;-0.522;2023-03-20T09:23:26;12.20;80.85
68912;SHT31;55953;51.650;-0.522;2023-03-20T09:25:54;12.20;80.87
68912;SHT31;55953;51.650;-0.522;2023-03-20T09:28:22;12.16;80.95
68912;SHT31;55953;51.650;-0.522;2023-03-20T09:30:53;12.14;81.04
68912;SHT31;55953;51.650;-0.522;2023-03-20T09:33:23;12.13;81.20
68912;SHT31;55953;51.650;-0.522;2023-03-20T09:35:51;12.08;81.27
68912;SHT31;55953;51.650;-0.522;2023-03-20T09:38:19;12.08;81.49
68912;SHT31;55953;51.650;-0.522;2023-03-20T09:41:00;12.13;81.54
68912;SHT31;55953;51.650;-0.522;2023-03-20T09:46:33;12.25;81.54
68912;SHT31;55953;51.650;-0.522;2023-03-20T09:53:17;12.27;81.47
68912;SHT31;55953;51.650;-0.522;2023-03-20T09:56:03;12.32;81.34
68912;SHT31;55953;51.650;-0.522;2023-03-20T09:58:37;12.37;81.22
68912;SHT31;55953;51.650;-0.522;2023-03-20T10:01:09;12.44;81.19
68912;SHT31;55953;51.650;-0.522;2023-03-20T10:04:03;12.51;80.99
68912;SHT31;55953;51.650;-0.522;2023-03-20T10:06:37;12.58;80.88
68912;SHT31;55953;51.650;-0.522;2023-03-20T10:09:10;12.66;80.73
68912;SHT31;55953;51.650;-0.522;2023-03-20T10:21:38;13.86;78.29
68912;SHT31;55953;51.650;-0.522;2023-03-20T10:24:01;13.90;77.91
68912;SHT31;55953;51.650;-0.522;2023-03-20T10:26:33;13.87;77.71
68912;SHT31;55953;51.650;-0.522;2023-03-20T10:29:04;13.78;77.87
68912;SHT31;55953;51.650;-0.522;2023-03-20T10:34:38;13.68;77.88
68912;SHT31;55953;51.650;-0.522;2023-03-20T10:37:47;13.59;78.16
68912;SHT31;55953;51.650;-0.522;2023-03-20T10:40:34;13.53;78.43
68912;SHT31;55953;51.650;-0.522;2023-03-20T10:43:08;13.48;78.50
68912;SHT31;55953;51.650;-0.522;2023-03-20T10:48:41;13.38;78.95
68912;SHT31;55953;51.650;-0.522;2023-03-20T10:51:17;13.40;78.95
68912;SHT31;55953;51.650;-0.522;2023-03-20T10:53:54;13.44;78.89
68912;SHT31;55953;51.650;-0.522;2023-03-20T10:56:39;13.41;78.99
68912;SHT31;55953;51.650;-0.522;2023-03-20T10:59:57;13.40;79.37
68912;SHT31;55953;51.650;-0.522;2023-03-20T11:02:11;13.52;79.43
68912;SHT31;55953;51.650;-0.522;2023-03-20T11:04:42;13.49;79.43
68912;SHT31;55953;51.650;-0.522;2023-03-20T11:07:18;13.45;79.77
68912;SHT31;55953;51.650;-0.522;2023-03-20T11:12:33;13.54;79.70
68912;SHT31;55953;51.650;-0.522;2023-03-20T11:17:55;13.45;79.26
68912;SHT31;55953;51.650;-0.522;2023-03-20T11:20:34;13.34;79.60
68912;SHT31;55953;51.650;-0.522;2023-03-20T11:23:06;13.45;79.88
68912;SHT31;55953;51.650;-0.522;2023-03-20T11:25:38;13.49;79.63
68912;SHT31;55953;51.650;-0.522;2023-03-20T11:28:38;13.47;79.65
68912;SHT31;55953;51.650;-0.522;2023-03-20T11:31:20;13.34;79.64
68912;SHT31;55953;51.650;-0.522;2023-03-20T11:34:09;13.26;79.94
68912;SHT31;55953;51.650;-0.522;2023-03-20T11:36:56;13.28;80.12
68912;SHT31;55953;51.650;-0.522;2023-03-20T11:39:51;13.23;79.97
68912;SHT31;55953;51.650;-0.522;2023-03-20T11:42:33;13.20;79.97
68912;SHT31;55953;51.650;-0.522;2023-03-20T11:45:04;13.18;80.07
68912;SHT31;55953;51.650;-0.522;2023-03-20T11:47:43;13.24;80.08
68912;SHT31;55953;51.650;-0.522;2023-03-20T11:52:59;13.48;79.64
68912;SHT31;55953;51.650;-0.522;2023-03-20T11:55:30;13.55;79.42
68912;SHT31;55953;51.650;-0.522;2023-03-20T11:58:03;13.53;79.31
68912;SHT31;55953;51.650;-0.522;2023-03-20T12:00:38;13.53;79.32
68912;SHT31;55953;51.650;-0.522;2023-03-20T12:06:24;13.71;79.09
68912;SHT31;55953;51.650;-0.522;2023-03-20T12:17:29;14.02;78.12
68912;SHT31;55953;51.650;-0.522;2023-03-20T12:23:39;13.88;78.05
68912;SHT31;55953;51.650;-0.522;2023-03-20T12:26:14;13.81;78.37
68912;SHT31;55953;51.650;-0.522;2023-03-20T12:28:59;13.82;78.44
68912;SHT31;55953;51.650;-0.522;2023-03-20T12:31:43;13.89;78.49
68912;SHT31;55953;51.650;-0.522;2023-03-20T12:34:21;13.96;78.40
68912;SHT31;55953;51.650;-0.522;2023-03-20T12:36:57;14.04;78.15
68912;SHT31;55953;51.650;-0.522;2023-03-20T12:39:33;14.12;78.18
68912;SHT31;55953;51.650;-0.522;2023-03-20T12:44:47;14.27;77.41
68912;SHT31;55953;51.650;-0.522;2023-03-20T12:50:19;14.17;77.77
68912;SHT31;55953;51.650;-0.522;2023-03-20T12:53:08;14.25;77.66
68912;SHT31;55953;51.650;-0.522;2023-03-20T13:02:21;14.15;77.54
68912;SHT31;55953;51.650;-0.522;2023-03-20T13:05:24;14.06;77.58
68912;SHT31;55953;51.650;-0.522;2023-03-20T13:11:21;13.85;77.85
68912;SHT31;55953;51.650;-0.522;2023-03-20T13:22:34;13.73;78.43
68912;SHT31;55953;51.650;-0.522;2023-03-20T13:42:28;13.83;78.47
68912;SHT31;55953;51.650;-0.522;2023-03-20T13:45:06;13.83;78.65
68912;SHT31;55953;51.650;-0.522;2023-03-20T13:47:59;13.87;78.59
68912;SHT31;55953;51.650;-0.522;2023-03-20T13:57:19;14.24;77.97
68912;SHT31;55953;51.650;-0.522;2023-03-20T14:00:24;14.30;77.63
68912;SHT31;55953;51.650;-0.522;2023-03-20T14:05:53;14.29;78.61
68912;SHT31;55953;51.650;-0.522;2023-03-20T14:08:23;14.26;79.06
68912;SHT31;55953;51.650;-0.522;2023-03-20T14:13:37;14.13;79.94
68912;SHT31;55953;51.650;-0.522;2023-03-20T14:16:09;14.07;80.12
68912;SHT31;55953;51.650;-0.522;2023-03-20T14:18:42;14.06;80.32
68912;SHT31;55953;51.650;-0.522;2023-03-20T14:21:17;14.04;80.44
68912;SHT31;55953;51.650;-0.522;2023-03-20T14:23:50;14.06;80.54
68912;SHT31;55953;51.650;-0.522;2023-03-20T14:26:30;14.10;80.51
68912;SHT31;55953;51.650;-0.522;2023-03-20T14:31:38;14.12;80.58
68912;SHT31;55953;51.650;-0.522;2023-03-20T14:40:32;13.86;81.10
68912;SHT31;55953;51.650;-0.522;2023-03-20T14:45:58;13.74;81.37
68912;SHT31;55953;51.650;-0.522;2023-03-20T14:51:31;13.68;81.83
68912;SHT31;55953;51.650;-0.522;2023-03-20T14:56:48;13.76;81.97
68912;SHT31;55953;51.650;-0.522;2023-03-20T14:59:19;13.68;82.08
68912;SHT31;55953;51.650;-0.522;2023-03-20T15:01:57;13.61;81.97
68912;SHT31;55953;51.650;-0.522;2023-03-20T15:07:09;13.53;82.28
68912;SHT31;55953;51.650;-0.522;2023-03-20T15:09:46;13.52;82.39
68912;SHT31;55953;51.650;-0.522;2023-03-20T15:12:19;13.47;82.39
68912;SHT31;55953;51.650;-0.522;2023-03-20T15:14:57;13.42;82.48
68912;SHT31;55953;51.650;-0.522;2023-03-20T15:20:16;13.46;82.73
68912;SHT31;55953;51.650;-0.522;2023-03-20T15:22:53;13.48;82.75
68912;SHT31;55953;51.650;-0.522;2023-03-20T15:25:41;13.44;82.71
68912;SHT31;55953;51.650;-0.522;2023-03-20T15:28:16;13.43;82.74
68912;SHT31;55953;51.650;-0.522;2023-03-20T15:30:55;13.39;82.79
68912;SHT31;55953;51.650;-0.522;2023-03-20T15:33:33;13.34;82.81
68912;SHT31;55953;51.650;-0.522;2023-03-20T15:36:09;13.25;82.89
68912;SHT31;55953;51.650;-0.522;2023-03-20T15:38:44;13.13;83.09
68912;SHT31;55953;51.650;-0.522;2023-03-20T15:43:53;12.91;83.48
68912;SHT31;55953;51.650;-0.522;2023-03-20T15:46:54;12.84;83.71
68912;SHT31;55953;51.650;-0.522;2023-03-20T15:49:30;12.90;83.79
68912;SHT31;55953;51.650;-0.522;2023-03-20T15:52:00;12.91;83.69
68912;SHT31;55953;51.650;-0.522;2023-03-20T15:54:34;12.81;83.83
68912;SHT31;55953;51.650;-0.522;2023-03-20T15:57:03;12.75;83.98
68912;SHT31;55953;51.650;-0.522;2023-03-20T15:59:31;12.78;84.10
68912;SHT31;55953;51.650;-0.522;2023-03-20T16:02:00;12.80;83.91
68912;SHT31;55953;51.650;-0.522;2023-03-20T16:04:30;12.77;83.91
68912;SHT31;55953;51.650;-0.522;2023-03-20T16:06:58;12.80;84.06
68912;SHT31;55953;51.650;-0.522;2023-03-20T16:09:28;12.75;84.11
68912;SHT31;55953;51.650;-0.522;2023-03-20T16:14:30;12.60;84.28
68912;SHT31;55953;51.650;-0.522;2023-03-20T16:17:01;12.55;84.32
68912;SHT31;55953;51.650;-0.522;2023-03-20T16:19:31;12.50;84.26
68912;SHT31;55953;51.650;-0.522;2023-03-20T16:24:46;12.38;84.27
68912;SHT31;55953;51.650;-0.522;2023-03-20T16:27:23;12.35;84.35
68912;SHT31;55953;51.650;-0.522;2023-03-20T16:29:58;12.31;84.55
68912;SHT31;55953;51.650;-0.522;2023-03-20T16:32:54;12.29;84.63
68912;SHT31;55953;51.650;-0.522;2023-03-20T16:35:42;12.25;84.62
68912;SHT31;55953;51.650;-0.522;2023-03-20T16:40:55;12.22;84.62
68912;SHT31;55953;51.650;-0.522;2023-03-20T16:43:50;12.22;84.93
68912;SHT31;55953;51.650;-0.522;2023-03-20T16:46:22;12.30;84.88
68912;SHT31;55953;51.650;-0.522;2023-03-20T16:48:55;12.35;84.76
68912;SHT31;55953;51.650;-0.522;2023-03-20T16:51:34;12.39;84.62
68912;SHT31;55953;51.650;-0.522;2023-03-20T16:54:02;12.40;84.61
68912;SHT31;55953;51.650;-0.522;2023-03-20T16:56:34;12.39;84.59
68912;SHT31;55953;51.650;-0.522;2023-03-20T16:59:05;12.39;84.61
68912;SHT31;55953;51.650;-0.522;2023-03-20T17:01:36;12.37;84.60
68912;SHT31;55953;51.650;-0.522;2023-03-20T17:04:14;12.32;84.61
68912;SHT31;55953;51.650;-0.522;2023-03-20T17:06:49;12.28;84.69
68912;SHT31;55953;51.650;-0.522;2023-03-20T17:09:25;12.22;84.77
68912;SHT31;55953;51.650;-0.522;2023-03-20T17:12:13;12.19;84.85
68912;SHT31;55953;51.650;-0.522;2023-03-20T17:14:44;12.15;84.84
68912;SHT31;55953;51.650;-0.522;2023-03-20T17:17:13;12.10;85.07
68912;SHT31;55953;51.650;-0.522;2023-03-20T17:19:47;12.05;85.13
68912;SHT31;55953;51.650;-0.522;2023-03-20T17:22:18;12.01;85.20
68912;SHT31;55953;51.650;-0.522;2023-03-20T17:24:48;11.94;85.39
68912;SHT31;55953;51.650;-0.522;2023-03-20T17:27:17;11.88;85.52
68912;SHT31;55953;51.650;-0.522;2023-03-20T17:29:47;11.83;85.61
68912;SHT31;55953;51.650;-0.522;2023-03-20T17:32:17;11.81;85.72
68912;SHT31;55953;51.650;-0.522;2023-03-20T17:34:50;11.77;85.77
68912;SHT31;55953;51.650;-0.522;2023-03-20T17:37:21;11.73;85.92
68912;SHT31;55953;51.650;-0.522;2023-03-20T17:39:56;11.70;86.07
68912;SHT31;55953;51.650;-0.522;2023-03-20T17:42:24;11.70;86.16
68912;SHT31;55953;51.650;-0.522;2023-03-20T17:44:58;11.65;86.07
68912;SHT31;55953;51.650;-0.522;2023-03-20T17:47:29;11.62;86.15
68912;SHT31;55953;51.650;-0.522;2023-03-20T17:49:57;11.60;86.33
68912;SHT31;55953;51.650;-0.522;2023-03-20T17:52:26;11.55;86.49
68912;SHT31;55953;51.650;-0.522;2023-03-20T17:54:54;11.51;86.57
68912;SHT31;55953;51.650;-0.522;2023-03-20T17:59:58;11.50;86.57
68912;SHT31;55953;51.650;-0.522;2023-03-20T18:02:27;11.47;86.61
68912;SHT31;55953;51.650;-0.522;2023-03-20T18:04:55;11.44;86.75
68912;SHT31;55953;51.650;-0.522;2023-03-20T18:07:22;11.42;86.81
68912;SHT31;55953;51.650;-0.522;2023-03-20T18:09:50;11.40;86.89
68912;SHT31;55953;51.650;-0.522;2023-03-20T18:12:18;11.38;86.86
68912;SHT31;55953;51.650;-0.522;2023-03-20T18:14:47;11.36;86.91
68912;SHT31;55953;51.650;-0.522;2023-03-20T18:17:15;11.33;87.02
68912;SHT31;55953;51.650;-0.522;2023-03-20T18:19:43;11.29;87.04
68912;SHT31;55953;51.650;-0.522;2023-03-20T18:22:11;11.26;87.12
68912;SHT31;55953;51.650;-0.522;2023-03-20T18:24:39;11.24;87.03
68912;SHT31;55953;51.650;-0.522;2023-03-20T18:27:11;11.20;87.33
68912;SHT31;55953;51.650;-0.522;2023-03-20T18:29:39;11.17;87.36
68912;SHT31;55953;51.650;-0.522;2023-03-20T18:32:07;11.16;87.17
68912;SHT31;55953;51.650;-0.522;2023-03-20T18:34:35;11.16;87.26
68912;SHT31;55953;51.650;-0.522;2023-03-20T18:37:03;11.15;87.16
68912;SHT31;55953;51.650;-0.522;2023-03-20T18:39:34;11.13;87.22
68912;SHT31;55953;51.650;-0.522;2023-03-20T18:42:02;11.10;87.21
68912;SHT31;55953;51.650;-0.522;2023-03-20T18:44:30;11.09;87.25
68912;SHT31;55953;51.650;-0.522;2023-03-20T18:46:57;11.05;87.23
68912;SHT31;55953;51.650;-0.522;2023-03-20T18:49:25;11.04;87.29
68912;SHT31;55953;51.650;-0.522;2023-03-20T18:51:53;11.05;87.19
68912;SHT31;55953;51.650;-0.522;2023-03-20T18:54:21;11.02;87.23
68912;SHT31;55953;51.650;-0.522;2023-03-20T18:56:49;11.02;87.30
68912;SHT31;55953;51.650;-0.522;2023-03-20T18:59:18;10.98;87.35
68912;SHT31;55953;51.650;-0.522;2023-03-20T19:01:46;10.96;87.35
68912;SHT31;55953;51.650;-0.522;2023-03-20T19:04:15;10.95;87.33
68912;SHT31;55953;51.650;-0.522;2023-03-20T19:06:43;10.91;87.23
68912;SHT31;55953;51.650;-0.522;2023-03-20T19:09:11;10.91;87.36